createdAt,value
2018-06-03T00:01:06.602Z,81.87
2018-06-03T00:03:34.038Z,83.93
2018-06-03T00:06:01.434Z,79.87
2018-06-03T00:08:28.886Z,82.73
2018-06-03T00:10:56.276Z,75.03
2018-06-03T00:13:23.807Z,77.13
2018-06-03T00:15:51.173Z,81.60
2018-06-03T00:18:18.579Z,90.50
2018-06-03T00:20:51.919Z,93.07
2018-06-03T00:23:19.349Z,85.37
2018-06-03T00:25:46.716Z,84.87
2018-06-03T00:28:14.103Z,85.07
2018-06-03T00:30:41.520Z,88.37
2018-06-03T00:33:09.022Z,87.50
2018-06-03T00:35:42.418Z,88.43
2018-06-03T00:38:09.775Z,82.70
2018-06-03T00:40:37.159Z,93.00
2018-06-03T00:43:04.654Z,96.40
2018-06-03T00:45:32.071Z,89.77
2018-06-03T00:47:59.499Z,89.23
2018-06-03T00:50:27.057Z,86.13
2018-06-03T00:52:54.482Z,90.40
2018-06-03T00:55:21.925Z,93.40
2018-06-03T00:57:49.293Z,97.50
2018-06-03T01:00:16.726Z,85.67
2018-06-03T01:02:44.161Z,85.47
2018-06-03T01:05:11.588Z,82.63
2018-06-03T01:07:38.956Z,91.17
2018-06-03T01:10:06.824Z,90.97
2018-06-03T01:12:34.228Z,91.67
2018-06-03T01:15:01.590Z,89.93
2018-06-03T01:17:28.980Z,89.27
2018-06-03T01:19:56.371Z,87.20
2018-06-03T01:22:23.756Z,94.77
2018-06-03T01:24:51.112Z,91.20
2018-06-03T01:27:18.577Z,89.87
2018-06-03T01:29:45.939Z,84.47
2018-06-03T01:32:13.292Z,83.60
2018-06-03T01:34:40.746Z,86.30
2018-06-03T01:37:08.132Z,91.23
2018-06-03T01:39:35.508Z,96.30
2018-06-03T01:42:02.916Z,97.67
2018-06-03T01:44:30.299Z,99.30
2018-06-03T01:46:58.057Z,90.93
2018-06-03T01:49:25.472Z,91.43
2018-06-03T01:51:52.845Z,98.90
2018-06-03T01:54:20.396Z,91.13
2018-06-03T01:56:47.884Z,92.00
2018-06-03T01:59:15.289Z,97.07
2018-06-03T02:01:42.679Z,88.97
2018-06-03T02:04:10.671Z,94.00
2018-06-03T02:06:38.117Z,101.93
2018-06-03T02:09:05.516Z,99.73
2018-06-03T02:11:32.901Z,92.77
2018-06-03T02:14:00.300Z,90.80
2018-06-03T02:16:27.689Z,91.20
2018-06-03T02:18:55.113Z,96.37
2018-06-03T02:21:22.562Z,90.20
2018-06-03T02:23:49.954Z,91.17
2018-06-03T02:29:02.356Z,87.03
2018-06-03T02:31:29.855Z,94.33
2018-06-03T02:33:57.222Z,90.43
2018-06-03T02:36:24.621Z,97.43
2018-06-03T02:38:52.025Z,97.07
2018-06-03T02:41:19.458Z,99.07
2018-06-03T02:43:46.851Z,104.50
2018-06-03T02:46:14.260Z,101.80
2018-06-03T02:48:41.689Z,96.30
2018-06-03T02:51:09.114Z,97.60
2018-06-03T02:53:36.496Z,89.23
2018-06-03T02:56:03.863Z,100.73
2018-06-03T02:58:31.283Z,93.57
2018-06-03T03:00:58.682Z,93.47
2018-06-03T03:03:26.951Z,87.63
2018-06-03T03:05:54.384Z,96.57
2018-06-03T03:08:21.817Z,91.70
2018-06-03T03:10:49.225Z,91.80
2018-06-03T03:13:16.749Z,91.43
2018-06-03T03:15:44.157Z,86.00
2018-06-03T03:18:11.560Z,93.07
2018-06-03T03:20:38.953Z,96.17
2018-06-03T03:23:06.373Z,92.63
2018-06-03T03:26:11.111Z,94.57
2018-06-03T03:28:39.172Z,91.57
2018-06-03T03:31:07.341Z,90.90
2018-06-03T03:33:35.344Z,90.97
2018-06-03T03:36:03.414Z,86.97
2018-06-03T03:38:31.471Z,82.53
2018-06-03T03:40:59.532Z,82.07
2018-06-03T03:43:27.534Z,87.20
2018-06-03T03:45:55.539Z,84.60
2018-06-03T03:48:23.669Z,83.93
2018-06-03T03:50:51.704Z,86.50
2018-06-03T03:53:19.712Z,84.73
2018-06-03T03:55:47.817Z,82.73
2018-06-03T03:58:15.811Z,81.20
2018-06-03T04:00:43.925Z,82.10
2018-06-03T04:03:12.065Z,78.27
2018-06-03T04:05:40.104Z,81.10
2018-06-03T04:08:08.191Z,78.27
2018-06-03T04:10:36.211Z,78.13
2018-06-03T04:13:04.282Z,80.00
2018-06-03T04:15:32.323Z,74.00
2018-06-03T04:18:00.332Z,74.53
2018-06-03T04:20:28.311Z,73.27
2018-06-03T04:22:56.407Z,72.40
2018-06-03T04:25:24.478Z,70.90
2018-06-03T04:27:52.505Z,74.03
2018-06-03T04:30:20.632Z,70.53
2018-06-03T04:32:48.668Z,74.97
2018-06-03T04:35:16.740Z,80.40
2018-06-03T04:37:44.721Z,74.73
2018-06-03T04:40:12.860Z,77.13
2018-06-03T04:42:41.011Z,69.43
2018-06-03T04:45:09.077Z,73.77
2018-06-03T04:47:37.096Z,67.67
2018-06-03T04:50:05.218Z,59.33
2018-06-03T04:52:33.308Z,63.90
2018-06-03T04:55:01.355Z,69.30
2018-06-03T04:57:29.384Z,65.13
2018-06-03T04:59:57.449Z,69.77
2018-06-03T05:02:25.577Z,64.17
2018-06-03T05:04:53.597Z,62.90
2018-06-03T05:07:21.653Z,67.53
2018-06-03T05:09:49.722Z,74.30
2018-06-03T05:12:17.774Z,67.50
2018-06-03T05:14:45.797Z,63.07
2018-06-03T05:17:13.817Z,65.97
2018-06-03T05:19:41.974Z,61.50
2018-06-03T05:22:10.047Z,76.50
2018-06-03T05:24:38.126Z,68.10
2018-06-03T05:27:06.220Z,61.60
2018-06-03T05:29:34.272Z,65.83
2018-06-03T05:32:02.365Z,63.10
2018-06-03T05:34:30.536Z,68.70
2018-06-03T05:36:58.593Z,71.17
2018-06-03T05:39:26.599Z,72.27
2018-06-03T05:41:54.712Z,75.43
2018-06-03T05:44:22.768Z,71.63
2018-06-03T05:46:50.785Z,70.93
2018-06-03T05:49:18.851Z,75.33
2018-06-03T05:51:46.897Z,76.77
2018-06-03T05:54:14.898Z,73.93
2018-06-03T05:56:42.918Z,73.83
2018-06-03T05:59:10.983Z,76.57
2018-06-03T06:01:39.079Z,70.93
2018-06-03T06:04:07.145Z,68.60
2018-06-03T06:06:35.194Z,76.87
2018-06-03T06:09:03.423Z,75.60
2018-06-03T06:11:31.489Z,76.17
2018-06-03T06:13:59.647Z,73.63
2018-06-03T06:16:27.756Z,78.37
2018-06-03T06:18:55.857Z,75.57
2018-06-03T06:21:24.045Z,73.13
2018-06-03T06:23:52.080Z,76.93
2018-06-03T06:26:20.096Z,75.50
2018-06-03T06:28:48.318Z,73.40
2018-06-03T06:31:16.365Z,86.83
2018-06-03T06:33:44.432Z,69.37
2018-06-03T06:36:12.484Z,79.07
2018-06-03T06:38:40.479Z,83.10
2018-06-03T06:41:08.498Z,77.10
2018-06-03T06:43:36.552Z,77.57
2018-06-03T06:46:04.796Z,77.80
2018-06-03T06:48:32.840Z,79.17
2018-06-03T06:51:00.875Z,84.20
2018-06-03T06:53:28.904Z,76.03
2018-06-03T06:55:56.975Z,75.27
2018-06-03T06:58:25.043Z,81.17
2018-06-03T07:00:53.022Z,74.87
2018-06-03T07:03:21.085Z,83.73
2018-06-03T07:05:49.148Z,81.77
2018-06-03T07:08:17.240Z,71.83
2018-06-03T07:10:45.303Z,86.10
2018-06-03T07:13:13.436Z,81.33
2018-06-03T07:15:41.545Z,78.93
2018-06-03T07:18:09.617Z,73.03
2018-06-03T07:20:37.678Z,78.03
2018-06-03T07:23:05.635Z,79.50
2018-06-03T07:25:33.708Z,72.30
2018-06-03T07:28:01.700Z,77.00
2018-06-03T07:30:29.877Z,74.03
2018-06-03T07:32:57.832Z,84.80
2018-06-03T07:35:26.546Z,81.73
2018-06-03T07:37:54.732Z,71.47
2018-06-03T07:40:22.708Z,70.30
2018-06-03T07:42:50.810Z,69.07
2018-06-03T07:45:18.847Z,71.43
2018-06-03T07:47:46.839Z,74.43
2018-06-03T07:50:15.165Z,66.57
2018-06-03T07:52:43.254Z,76.10
2018-06-03T07:55:11.305Z,72.90
2018-06-03T07:57:39.342Z,73.67
2018-06-03T08:00:07.381Z,76.40
2018-06-03T08:02:35.452Z,70.97
2018-06-03T08:05:03.584Z,83.23
2018-06-03T08:07:31.704Z,78.90
2018-06-03T08:09:59.775Z,78.00
2018-06-03T08:12:27.821Z,76.93
2018-06-03T08:14:55.861Z,74.37
2018-06-03T08:17:23.967Z,73.00
2018-06-03T08:19:52.017Z,72.43
2018-06-03T08:22:20.063Z,77.20
2018-06-03T08:24:48.057Z,81.63
2018-06-03T08:27:16.084Z,81.20
2018-06-03T08:29:44.079Z,84.77
2018-06-03T08:32:12.144Z,80.90
2018-06-03T08:34:40.204Z,73.80
2018-06-03T08:37:08.281Z,68.77
2018-06-03T08:39:36.301Z,67.90
2018-06-03T08:42:04.311Z,75.57
2018-06-03T08:44:32.357Z,74.20
2018-06-03T08:47:00.377Z,79.20
2018-06-03T08:49:28.416Z,69.03
2018-06-03T08:51:56.462Z,76.07
2018-06-03T08:54:24.508Z,72.77
2018-06-03T08:56:52.508Z,68.40
2018-06-03T08:59:20.536Z,77.97
2018-06-03T09:01:48.562Z,60.83
2018-06-03T09:04:16.608Z,64.00
2018-06-03T09:06:44.607Z,63.60
2018-06-03T09:09:12.755Z,57.93
2018-06-03T09:11:40.745Z,53.53
2018-06-03T09:14:08.793Z,59.77
2018-06-03T09:16:36.785Z,64.27
2018-06-03T09:19:04.896Z,57.40
2018-06-03T09:21:32.922Z,61.90
2018-06-03T09:24:00.888Z,64.73
2018-06-03T09:26:28.915Z,55.40
2018-06-03T09:28:56.944Z,59.13
2018-06-03T09:31:25.025Z,63.00
2018-06-03T09:33:53.130Z,64.00
2018-06-03T09:36:21.143Z,61.90
2018-06-03T09:38:49.211Z,65.97
2018-06-03T09:41:17.551Z,60.87
2018-06-03T09:43:45.581Z,59.13
2018-06-03T09:46:13.645Z,62.23
2018-06-03T09:48:41.604Z,57.97
2018-06-03T09:51:09.609Z,61.10
2018-06-03T09:53:37.732Z,52.63
2018-06-03T09:56:05.756Z,61.90
2018-06-03T09:58:33.829Z,67.23
2018-06-03T10:01:01.824Z,58.93
2018-06-03T10:03:29.955Z,66.10
2018-06-03T10:05:58.019Z,62.07
2018-06-03T10:08:26.033Z,67.77
2018-06-03T10:10:54.064Z,70.20
2018-06-03T10:13:22.025Z,72.37
2018-06-03T10:15:50.218Z,72.17
2018-06-03T10:18:18.289Z,67.60
2018-06-03T10:20:46.379Z,64.40
2018-06-03T10:23:14.413Z,64.20
2018-06-03T10:25:42.444Z,64.07
2018-06-03T10:28:10.536Z,70.97
2018-06-03T10:30:38.576Z,63.20
2018-06-03T10:33:07.426Z,67.43
2018-06-03T10:35:35.509Z,62.10
2018-06-03T10:38:03.604Z,57.53
2018-06-03T10:40:31.637Z,58.17
2018-06-03T10:42:59.884Z,60.20
2018-06-03T10:45:27.874Z,53.87
2018-06-03T10:47:55.912Z,47.87
2018-06-03T10:50:23.965Z,51.80
2018-06-03T10:52:52.027Z,49.10
2018-06-03T10:55:20.101Z,47.57
2018-06-03T10:57:48.309Z,50.10
2018-06-03T11:00:16.387Z,51.50
2018-06-03T11:02:44.466Z,51.40
2018-06-03T11:05:12.452Z,52.57
2018-06-03T11:07:40.508Z,52.00
2018-06-03T11:10:08.506Z,54.73
2018-06-03T11:12:36.609Z,54.13
2018-06-03T11:15:04.775Z,52.77
2018-06-03T11:17:32.813Z,51.07
2018-06-03T11:20:00.871Z,50.50
2018-06-03T11:22:28.904Z,46.57
2018-06-03T11:24:57.056Z,50.97
2018-06-03T11:27:25.064Z,49.77
2018-06-03T11:29:53.102Z,49.27
2018-06-03T11:32:21.283Z,53.27
2018-06-03T11:34:49.301Z,52.47
2018-06-03T11:37:17.366Z,57.87
2018-06-03T11:39:45.432Z,56.00
2018-06-03T11:42:13.485Z,54.57
2018-06-03T11:44:41.501Z,55.63
2018-06-03T11:47:09.500Z,49.70
2018-06-03T11:49:37.585Z,54.30
2018-06-03T11:52:05.683Z,54.80
2018-06-03T11:54:33.731Z,52.43
2018-06-03T11:57:02.408Z,47.20
2018-06-03T11:59:46.364Z,53.03
2018-06-03T12:02:15.959Z,45.13
2018-06-03T12:04:44.070Z,41.97
2018-06-03T12:07:12.100Z,42.77
2018-06-03T12:09:40.156Z,46.50
2018-06-03T12:12:08.207Z,41.97
2018-06-03T12:14:36.785Z,41.43
2018-06-03T12:17:04.779Z,40.70
2018-06-03T12:19:32.785Z,38.13
2018-06-03T12:22:00.771Z,42.37
2018-06-03T12:24:28.808Z,43.60
2018-06-03T12:26:56.788Z,40.10
2018-06-03T12:29:24.824Z,36.43
2018-06-03T12:31:52.889Z,37.50
2018-06-03T12:34:20.962Z,29.60
2018-06-03T12:36:48.977Z,24.80
2018-06-03T12:39:17.036Z,24.60
2018-06-03T12:41:45.067Z,24.63
2018-06-03T12:44:13.102Z,24.10
2018-06-03T12:46:41.127Z,22.13
2018-06-03T12:49:09.119Z,21.93
2018-06-03T12:51:37.216Z,22.10
2018-06-03T12:54:05.265Z,20.23
2018-06-03T12:56:33.324Z,20.80
2018-06-03T12:59:01.393Z,17.60
2018-06-03T13:01:29.457Z,18.07
2018-06-03T13:03:57.447Z,17.10
2018-06-03T13:06:25.511Z,16.43
2018-06-03T13:08:53.625Z,17.17
2018-06-03T13:11:21.675Z,13.47
2018-06-03T13:13:49.735Z,14.70
2018-06-03T13:16:17.757Z,15.67
2018-06-03T13:18:45.816Z,15.67
2018-06-03T13:21:13.883Z,13.83
2018-06-03T13:23:42.096Z,12.90
2018-06-03T13:26:10.190Z,15.30
2018-06-03T13:28:38.259Z,13.80
2018-06-03T13:31:06.327Z,12.10
2018-06-03T13:33:34.449Z,10.40
2018-06-03T13:36:02.563Z,11.63
2018-06-03T13:38:30.580Z,9.10
2018-06-03T13:40:58.660Z,9.10
2018-06-03T13:43:26.681Z,9.00
2018-06-03T13:45:54.734Z,11.60
2018-06-03T13:48:22.726Z,9.30
2018-06-03T13:50:50.801Z,11.53
2018-06-03T13:53:18.829Z,8.17
2018-06-03T13:55:46.872Z,8.83
2018-06-03T13:58:14.974Z,11.27
2018-06-03T14:00:43.012Z,9.33
2018-06-03T14:03:11.063Z,8.30
2018-06-03T14:05:39.065Z,11.93
2018-06-03T14:08:07.126Z,8.50
2018-06-03T14:10:35.196Z,12.30
2018-06-03T14:13:03.234Z,8.20
2018-06-03T14:15:31.329Z,11.03
2018-06-03T14:17:59.430Z,9.00
2018-06-03T14:20:27.460Z,8.90
2018-06-03T14:22:55.525Z,7.03
2018-06-03T14:25:23.618Z,9.43
2018-06-03T14:27:51.608Z,7.90
2018-06-03T14:30:19.647Z,6.90
2018-06-03T14:32:47.719Z,8.80
2018-06-03T14:35:15.789Z,7.10
2018-06-03T14:37:43.821Z,8.77
2018-06-03T14:40:11.854Z,9.50
2018-06-03T14:42:39.891Z,8.27
2018-06-03T14:45:07.875Z,9.63
2018-06-03T14:47:35.862Z,8.10
2018-06-03T14:50:03.923Z,7.13
2018-06-03T14:52:31.965Z,8.00
2018-06-03T14:55:00.016Z,6.53
2018-06-03T14:57:28.105Z,7.37
2018-06-03T14:59:56.015Z,7.43
2018-06-03T15:02:24.214Z,7.63
2018-06-03T15:04:52.386Z,7.50
2018-06-03T15:07:20.454Z,7.43
2018-06-03T15:09:48.523Z,7.53
2018-06-03T15:12:16.596Z,7.97
2018-06-03T15:14:44.702Z,6.70
2018-06-03T15:17:12.711Z,7.47
2018-06-03T15:19:40.833Z,8.30
2018-06-03T15:22:08.832Z,9.00
2018-06-03T15:24:37.454Z,7.87
2018-06-03T15:27:05.527Z,9.43
2018-06-03T15:29:33.619Z,8.60
2018-06-03T15:32:01.665Z,8.93
2018-06-03T15:34:29.658Z,9.73
2018-06-03T15:36:57.761Z,11.50
2018-06-03T15:39:25.867Z,10.00
2018-06-03T15:41:53.924Z,10.00
2018-06-03T15:44:22.001Z,9.90
2018-06-03T15:46:50.041Z,11.33
2018-06-03T15:49:18.057Z,10.53
2018-06-03T15:51:46.065Z,9.37
2018-06-03T15:54:14.170Z,10.13
2018-06-03T15:56:42.296Z,13.73
2018-06-03T15:59:10.282Z,10.53
2018-06-03T16:01:38.501Z,9.80
2018-06-03T16:04:06.592Z,10.00
2018-06-03T16:06:34.681Z,12.70
2018-06-03T16:09:02.700Z,9.30
2018-06-03T16:11:30.757Z,8.37
2018-06-03T16:13:58.854Z,8.87
2018-06-03T16:16:26.872Z,8.30
2018-06-03T16:18:55.445Z,7.97
2018-06-03T16:21:23.480Z,9.80
2018-06-03T16:23:51.536Z,8.37
2018-06-03T16:26:19.499Z,9.03
2018-06-03T16:28:47.536Z,8.73
2018-06-03T16:31:15.561Z,9.43
2018-06-03T16:33:43.616Z,9.27
2018-06-03T16:36:11.693Z,9.20
2018-06-03T16:38:39.759Z,9.40
2018-06-03T16:41:07.802Z,10.80
2018-06-03T16:43:35.840Z,11.30
2018-06-03T16:46:04.023Z,10.40
2018-06-03T16:48:32.104Z,15.47
2018-06-03T16:51:00.200Z,10.40
2018-06-03T16:53:28.240Z,10.13
2018-06-03T16:55:56.228Z,11.13
2018-06-03T16:58:24.323Z,10.50
2018-06-03T17:00:52.391Z,12.70
2018-06-03T17:03:20.528Z,11.20
2018-06-03T17:05:48.675Z,13.30
2018-06-03T17:08:16.763Z,12.40
2018-06-03T17:10:44.862Z,10.70
2018-06-03T17:13:12.895Z,10.30
2018-06-03T17:15:40.899Z,9.97
2018-06-03T17:18:08.932Z,12.27
2018-06-03T17:20:37.032Z,13.93
2018-06-03T17:23:05.100Z,17.53
2018-06-03T17:25:33.191Z,15.47
2018-06-03T17:28:01.221Z,14.70
2018-06-03T17:30:29.273Z,12.53
2018-06-03T17:32:57.368Z,14.57
2018-06-03T17:35:25.404Z,15.37
2018-06-03T17:37:53.465Z,12.87
2018-06-03T17:40:21.603Z,13.67
2018-06-03T17:42:49.626Z,13.33
2018-06-03T17:45:17.698Z,14.77
2018-06-03T17:47:45.806Z,13.33
2018-06-03T17:50:13.847Z,14.93
2018-06-03T17:52:41.953Z,14.10
2018-06-03T17:55:10.066Z,14.70
2018-06-03T17:57:38.121Z,14.60
2018-06-03T18:00:06.168Z,16.50
2018-06-03T18:02:37.124Z,16.23
2018-06-03T18:05:05.190Z,17.23
2018-06-03T18:07:33.203Z,17.50
2018-06-03T18:10:01.303Z,18.23
2018-06-03T18:12:29.491Z,18.23
2018-06-03T18:14:57.594Z,16.67
2018-06-03T18:17:25.622Z,15.70
2018-06-03T18:19:53.770Z,17.13
2018-06-03T18:22:21.804Z,18.10
2018-06-03T18:24:49.860Z,15.67
2018-06-03T18:27:17.962Z,20.40
2018-06-03T18:29:46.158Z,19.70
2018-06-03T18:32:14.412Z,17.43
2018-06-03T18:34:44.220Z,17.10
2018-06-03T18:37:12.507Z,17.43
2018-06-03T18:39:40.710Z,18.47
2018-06-03T18:42:08.972Z,18.40
2018-06-03T18:44:36.998Z,21.50
2018-06-03T18:47:05.137Z,23.63
2018-06-03T18:49:33.231Z,16.80
2018-06-03T18:52:01.306Z,18.10
2018-06-03T18:54:29.466Z,17.50
2018-06-03T18:56:57.629Z,21.10
2018-06-03T18:59:25.799Z,27.80
2018-06-03T19:01:53.797Z,29.23
2018-06-03T19:04:21.928Z,24.50
2018-06-03T19:06:50.026Z,25.20
2018-06-03T19:09:18.202Z,24.77
2018-06-03T19:11:46.344Z,33.93
2018-06-03T19:14:14.463Z,25.30
2018-06-03T19:16:42.529Z,23.53
2018-06-03T19:19:10.667Z,28.73
2018-06-03T19:21:38.833Z,23.87
2018-06-03T19:24:06.833Z,25.53
2018-06-03T19:26:34.954Z,22.23
2018-06-03T19:29:03.074Z,25.70
2018-06-03T19:31:31.235Z,29.30
2018-06-03T19:33:59.253Z,23.27
2018-06-03T19:36:27.398Z,25.50
2018-06-03T19:38:55.577Z,30.90
2018-06-03T19:41:23.687Z,28.67
2018-06-03T19:43:51.790Z,26.93
2018-06-03T19:46:19.911Z,25.77
2018-06-03T19:48:47.965Z,27.07
2018-06-03T19:51:16.138Z,25.67
2018-06-03T19:53:44.312Z,30.33
2018-06-03T19:56:12.449Z,26.87
2018-06-03T19:58:40.577Z,30.20
2018-06-03T20:01:09.130Z,33.43
2018-06-03T20:03:37.208Z,28.83
2018-06-03T20:06:05.356Z,28.77
2018-06-03T20:08:33.454Z,30.10
2018-06-03T20:11:01.521Z,29.57
2018-06-03T20:13:33.476Z,31.00
2018-06-03T20:16:01.594Z,34.77
2018-06-03T20:18:30.093Z,31.53
2018-06-03T20:20:58.118Z,33.00
2018-06-03T20:23:26.187Z,36.53
2018-06-03T20:25:54.704Z,36.20
2018-06-03T20:28:22.720Z,30.70
2018-06-03T20:30:50.891Z,33.20
2018-06-03T20:33:19.054Z,35.73
2018-06-03T20:35:47.145Z,32.57
2018-06-03T20:38:15.111Z,34.10
2018-06-03T20:40:43.181Z,34.70
2018-06-03T20:43:11.362Z,35.93
2018-06-03T20:45:39.437Z,34.00
2018-06-03T20:48:07.525Z,37.20
2018-06-03T20:50:35.588Z,35.87
2018-06-03T20:53:03.612Z,37.70
2018-06-03T20:55:31.684Z,36.90
2018-06-03T20:57:59.792Z,38.60
2018-06-03T21:00:27.861Z,37.73
2018-06-03T21:02:55.966Z,37.37
2018-06-03T21:05:24.066Z,36.50
2018-06-03T21:07:52.378Z,38.50
2018-06-03T21:10:20.469Z,35.17
2018-06-03T21:12:48.606Z,35.50
2018-06-03T21:15:16.674Z,35.77
2018-06-03T21:17:44.828Z,42.77
2018-06-03T21:20:12.896Z,40.17
2018-06-03T21:22:40.985Z,33.87
2018-06-03T21:25:09.034Z,37.10
2018-06-03T21:27:37.063Z,34.50
2018-06-03T21:30:05.084Z,36.13
2018-06-03T21:32:33.136Z,33.50
2018-06-03T21:35:01.251Z,35.63
2018-06-03T21:37:29.381Z,35.17
2018-06-03T21:39:57.460Z,34.67
2018-06-03T21:42:25.560Z,34.00
2018-06-03T21:44:53.653Z,36.43
2018-06-03T21:47:21.781Z,35.33
2018-06-03T21:49:49.921Z,36.73
2018-06-03T21:52:18.017Z,34.53
2018-06-03T21:54:46.036Z,38.87
2018-06-03T21:57:14.048Z,38.60
2018-06-03T21:59:42.142Z,35.33
2018-06-03T22:02:10.267Z,33.83
2018-06-03T22:04:38.222Z,38.97
2018-06-03T22:07:06.341Z,38.03
2018-06-03T22:09:34.363Z,41.73
2018-06-03T22:12:02.415Z,39.33
2018-06-03T22:14:30.473Z,37.10
2018-06-03T22:16:58.569Z,35.70
2018-06-03T22:19:26.744Z,45.10
2018-06-03T22:21:54.822Z,38.07
2018-06-03T22:24:22.840Z,37.40
2018-06-03T22:26:50.915Z,40.17
2018-06-03T22:29:18.954Z,40.60
2018-06-03T22:31:47.020Z,40.03
2018-06-03T22:34:15.081Z,39.60
2018-06-03T22:36:43.191Z,43.70
2018-06-03T22:39:11.536Z,41.50
2018-06-03T22:41:39.579Z,39.30
2018-06-03T22:44:07.647Z,38.30
2018-06-03T22:46:35.645Z,40.50
2018-06-03T22:49:03.840Z,46.60
2018-06-03T22:51:31.840Z,45.27
2018-06-03T22:53:59.911Z,42.57
2018-06-03T22:56:32.429Z,41.73
2018-06-03T22:59:00.482Z,43.13
2018-06-03T23:01:28.526Z,41.77
2018-06-03T23:03:56.590Z,40.60
2018-06-03T23:06:24.654Z,45.00
2018-06-03T23:08:52.695Z,42.53
2018-06-03T23:11:20.706Z,40.87
2018-06-03T23:13:48.728Z,45.57
2018-06-03T23:16:16.803Z,41.70
2018-06-03T23:18:44.904Z,49.57
2018-06-03T23:21:13.025Z,51.53
2018-06-03T23:23:41.035Z,44.13
2018-06-03T23:26:09.044Z,45.30
2018-06-03T23:28:37.126Z,44.77
2018-06-03T23:31:05.153Z,46.70
2018-06-03T23:33:33.195Z,45.87
2018-06-03T23:36:01.217Z,50.80
2018-06-03T23:38:29.259Z,54.40
2018-06-03T23:40:57.368Z,51.27
2018-06-03T23:43:25.440Z,59.67
2018-06-03T23:45:53.497Z,51.60
2018-06-03T23:48:21.600Z,48.40
2018-06-03T23:50:49.709Z,52.63
2018-06-03T23:53:17.792Z,53.80
2018-06-03T23:55:45.767Z,48.67
2018-06-03T23:58:13.837Z,52.30
